Flight Information

DEPARTURE
FRIDAY HARBOR, WA
Elevation:
112
Runways:
16/34 - 3402x75 - ASPH-G
CTAF:
128.250
DESTINATION
EASTSOUND, WA
Elevation:
34
TPA:
1034 (1000)
Runways:
16/34 - 2901x60 - ASPH-G
CTAF:
128.250


12.1 NM22° True-21° Var1° HDG

Flight Plan:
(click to file on line)

1. Type
2. Aircraft Identification
3. Aircraft Type / Special Equipment
4. True Airspeed
kts
5. Departure Airport
(ICAO code)
6. Arriving Airport
(ICAO code)
7. Cruising Altitude
ft
8. Alternate Airport
(ICAO code)
9. Route of Flight
10. Remarks


00:00:00 Departure ATIS: Destination ATIS:

Clearance Limit:
Route:
Altitude: Expect in minutes
Frequency:
Transponder: (7500 Hijack / 7600 Lost Comms / 7700 Emergency)


KFHR 261453Z AUTO 36006KT 10SM CLR 21/12 A3012 RMK AO2 SLP200 T02110117 53003 $
Time: 2022-06-26T14:53:00Z
1656255850
Winds: 360 @ 6 kts
Visibility: 10.0 sm
Clouds (AGL): CLR
Temperature: 21.1 C
Dew Point: 11.7 C
Pressure: 30.121063 in Hgbr

KORS 261455Z AUTO 35004KT 10SM CLR 18/14 A3012 RMK AO2
Time: 2022-06-26T14:55:00Z
1656255851
Winds: 350 @ 4 kts
Visibility: 10.0 sm
Clouds (AGL): CLR
Temperature: 18.0 C
Dew Point: 14.0 C
Pressure: 30.121063 in Hgbr


Notes:

Data extracted from FAA Digital Chart Supplement. Effective: 0901Z Thursday, 27 JAN 2022 to 0900z Thursday, 24 MAR 2022
Current ATIS data is provided courtisy of PilotEdge.